"WATCHING THE WEATHER TO PROTECT LIFE AND PROPERTY"


Aviation
Satellite (InfraRed)


TNCA 240200Z 08013KT 9999 FEW020 28/24 Q1012 A2989 NOSIG
TNCB 240155Z AUTO 08012KT 040V110 9999 FEW019/// 27/23 Q1012
TNCC 240200Z 10011KT 9999 FEW018 27/23 Q1013 NOSIG